sensor_id;sensor_type;location;lat;lon;timestamp;pressure;altitude;pressure_sealevel;temperature;humidity
69239;BME280;56349;51.816;-0.026;2022-12-18T00:01:45;101681.77;;;20.32;28.45
69239;BME280;56349;51.816;-0.026;2022-12-18T00:04:18;101680.52;;;20.16;28.53
69239;BME280;56349;51.816;-0.026;2022-12-18T00:06:36;101683.27;;;20.22;28.66
69239;BME280;56349;51.816;-0.026;2022-12-18T00:09:03;101675.08;;;20.02;28.80
69239;BME280;56349;51.816;-0.026;2022-12-18T00:11:30;101667.64;;;20.01;28.97
69239;BME280;56349;51.816;-0.026;2022-12-18T00:13:55;101660.66;;;19.56;29.17
69239;BME280;56349;51.816;-0.026;2022-12-18T00:16:21;101657.06;;;19.34;29.37
69239;BME280;56349;51.816;-0.026;2022-12-18T00:18:46;101665.22;;;19.60;29.55
69239;BME280;56349;51.816;-0.026;2022-12-18T00:21:12;101670.21;;;19.41;29.69
69239;BME280;56349;51.816;-0.026;2022-12-18T00:23:38;101672.57;;;19.21;29.89
69239;BME280;56349;51.816;-0.026;2022-12-18T00:26:04;101670.45;;;19.04;30.05
69239;BME280;56349;51.816;-0.026;2022-12-18T00:28:27;101667.92;;;18.88;30.19
69239;BME280;56349;51.816;-0.026;2022-12-18T00:31:00;101667.16;;;18.73;30.31
69239;BME280;56349;51.816;-0.026;2022-12-18T00:33:19;101667.47;;;18.85;30.46
69239;BME280;56349;51.816;-0.026;2022-12-18T00:35:45;101671.43;;;18.92;30.59
69239;BME280;56349;51.816;-0.026;2022-12-18T00:38:11;101670.76;;;18.55;30.71
69239;BME280;56349;51.816;-0.026;2022-12-18T00:40:37;101668.12;;;18.63;30.86
69239;BME280;56349;51.816;-0.026;2022-12-18T00:43:03;101663.36;;;18.49;30.98
69239;BME280;56349;51.816;-0.026;2022-12-18T00:45:29;101661.62;;;18.42;31.05
69239;BME280;56349;51.816;-0.026;2022-12-18T00:47:54;101656.68;;;18.32;31.15
69239;BME280;56349;51.816;-0.026;2022-12-18T00:50:19;101656.27;;;18.23;31.21
69239;BME280;56349;51.816;-0.026;2022-12-18T00:52:44;101656.90;;;18.12;31.31
69239;BME280;56349;51.816;-0.026;2022-12-18T00:55:10;101655.87;;;18.01;31.41
69239;BME280;56349;51.816;-0.026;2022-12-18T00:57:35;101656.01;;;17.91;31.49
69239;BME280;56349;51.816;-0.026;2022-12-18T01:00:01;101654.84;;;17.82;31.59
69239;BME280;56349;51.816;-0.026;2022-12-18T01:02:26;101650.51;;;17.73;31.66
69239;BME280;56349;51.816;-0.026;2022-12-18T01:04:52;101652.10;;;17.92;31.72
69239;BME280;56349;51.816;-0.026;2022-12-18T01:07:19;101652.28;;;17.85;31.78
69239;BME280;56349;51.816;-0.026;2022-12-18T01:09:45;101650.29;;;17.49;31.86
69239;BME280;56349;51.816;-0.026;2022-12-18T01:12:10;101648.91;;;17.69;31.94
69239;BME280;56349;51.816;-0.026;2022-12-18T01:14:37;101647.32;;;17.36;32.00
69239;BME280;56349;51.816;-0.026;2022-12-18T01:17:02;101640.30;;;17.54;32.06
69239;BME280;56349;51.816;-0.026;2022-12-18T01:19:28;101634.51;;;17.46;32.13
69239;BME280;56349;51.816;-0.026;2022-12-18T01:21:54;101627.30;;;17.59;32.22
69239;BME280;56349;51.816;-0.026;2022-12-18T01:24:20;101625.85;;;17.53;32.26
69239;BME280;56349;51.816;-0.026;2022-12-18T01:26:46;101616.82;;;17.47;32.33
69239;BME280;56349;51.816;-0.026;2022-12-18T01:29:12;101613.06;;;17.42;32.37
69239;BME280;56349;51.816;-0.026;2022-12-18T01:31:38;101609.82;;;17.36;32.44
69239;BME280;56349;51.816;-0.026;2022-12-18T01:34:04;101607.61;;;17.29;32.50
69239;BME280;56349;51.816;-0.026;2022-12-18T01:36:30;101612.41;;;17.23;32.55
69239;BME280;56349;51.816;-0.026;2022-12-18T01:38:55;101609.90;;;17.20;32.56
69239;BME280;56349;51.816;-0.026;2022-12-18T01:41:23;101608.45;;;17.16;32.58
69239;BME280;56349;51.816;-0.026;2022-12-18T01:43:49;101608.02;;;17.08;32.65
69239;BME280;56349;51.816;-0.026;2022-12-18T01:46:12;101606.94;;;17.03;32.70
69239;BME280;56349;51.816;-0.026;2022-12-18T01:48:37;101606.14;;;16.99;32.73
69239;BME280;56349;51.816;-0.026;2022-12-18T01:51:03;101606.85;;;17.16;32.77
69239;BME280;56349;51.816;-0.026;2022-12-18T01:53:29;101607.91;;;17.10;32.81
69239;BME280;56349;51.816;-0.026;2022-12-18T01:55:56;101604.74;;;17.06;32.85
69239;BME280;56349;51.816;-0.026;2022-12-18T01:58:27;101605.14;;;16.78;32.90
69239;BME280;56349;51.816;-0.026;2022-12-18T02:00:46;101602.38;;;16.73;32.94
69239;BME280;56349;51.816;-0.026;2022-12-18T02:03:12;101602.21;;;16.90;32.97
69239;BME280;56349;51.816;-0.026;2022-12-18T02:05:45;101599.62;;;16.86;32.99
69239;BME280;56349;51.816;-0.026;2022-12-18T02:08:09;101595.93;;;17.11;32.99
69239;BME280;56349;51.816;-0.026;2022-12-18T02:10:38;101589.32;;;16.82;33.00
69239;BME280;56349;51.816;-0.026;2022-12-18T02:13:02;101592.51;;;16.78;33.02
69239;BME280;56349;51.816;-0.026;2022-12-18T02:15:29;101602.95;;;16.71;33.07
69239;BME280;56349;51.816;-0.026;2022-12-18T02:17:52;101615.96;;;16.66;33.12
69239;BME280;56349;51.816;-0.026;2022-12-18T02:20:17;101622.68;;;16.89;33.14
69239;BME280;56349;51.816;-0.026;2022-12-18T02:22:49;101622.33;;;16.60;33.15
69239;BME280;56349;51.816;-0.026;2022-12-18T02:25:16;101628.79;;;16.56;33.19
69239;BME280;56349;51.816;-0.026;2022-12-18T02:27:32;101634.46;;;16.78;33.21
69239;BME280;56349;51.816;-0.026;2022-12-18T02:29:58;101642.22;;;16.48;33.22
69239;BME280;56349;51.816;-0.026;2022-12-18T02:32:25;101648.02;;;16.46;33.24
69239;BME280;56349;51.816;-0.026;2022-12-18T02:34:49;101649.52;;;16.41;33.26
69239;BME280;56349;51.816;-0.026;2022-12-18T02:37:16;101648.96;;;16.64;33.26
69239;BME280;56349;51.816;-0.026;2022-12-18T02:39:41;101655.16;;;16.36;33.28
69239;BME280;56349;51.816;-0.026;2022-12-18T02:42:04;101659.04;;;16.33;33.29
69239;BME280;56349;51.816;-0.026;2022-12-18T02:44:30;101658.91;;;16.30;33.29
69239;BME280;56349;51.816;-0.026;2022-12-18T02:46:56;101658.33;;;16.53;33.32
69239;BME280;56349;51.816;-0.026;2022-12-18T02:49:29;101659.20;;;16.24;33.33
69239;BME280;56349;51.816;-0.026;2022-12-18T02:51:51;101665.87;;;16.47;33.36
69239;BME280;56349;51.816;-0.026;2022-12-18T02:54:23;101666.51;;;16.43;33.38
69239;BME280;56349;51.816;-0.026;2022-12-18T02:56:42;101666.29;;;16.11;33.40
69239;BME280;56349;51.816;-0.026;2022-12-18T02:59:09;101662.54;;;16.36;33.40
69239;BME280;56349;51.816;-0.026;2022-12-18T03:01:33;101663.52;;;16.33;33.42
69239;BME280;56349;51.816;-0.026;2022-12-18T03:04:01;101669.91;;;16.30;33.43
69239;BME280;56349;51.816;-0.026;2022-12-18T03:06:26;101666.27;;;16.27;33.43
69239;BME280;56349;51.816;-0.026;2022-12-18T03:08:51;101659.90;;;15.99;33.45
69239;BME280;56349;51.816;-0.026;2022-12-18T03:11:14;101656.18;;;15.99;33.42
69239;BME280;56349;51.816;-0.026;2022-12-18T03:13:41;101654.75;;;16.19;33.45
69239;BME280;56349;51.816;-0.026;2022-12-18T03:16:06;101655.16;;;16.12;33.50
69239;BME280;56349;51.816;-0.026;2022-12-18T03:18:32;101654.20;;;16.09;33.54
69239;BME280;56349;51.816;-0.026;2022-12-18T03:20:57;101647.09;;;16.05;33.54
69239;BME280;56349;51.816;-0.026;2022-12-18T03:23:24;101639.99;;;16.02;33.56
69239;BME280;56349;51.816;-0.026;2022-12-18T03:25:47;101635.48;;;15.99;33.58
69239;BME280;56349;51.816;-0.026;2022-12-18T03:28:15;101631.66;;;15.98;33.57
69239;BME280;56349;51.816;-0.026;2022-12-18T03:30:39;101629.31;;;15.98;33.55
69239;BME280;56349;51.816;-0.026;2022-12-18T03:33:07;101622.21;;;15.68;33.56
69239;BME280;56349;51.816;-0.026;2022-12-18T03:35:33;101616.77;;;15.92;33.58
69239;BME280;56349;51.816;-0.026;2022-12-18T03:37:54;101626.68;;;15.88;33.60
69239;BME280;56349;51.816;-0.026;2022-12-18T03:40:26;101632.35;;;15.58;33.62
69239;BME280;56349;51.816;-0.026;2022-12-18T03:42:49;101628.02;;;15.80;33.65
69239;BME280;56349;51.816;-0.026;2022-12-18T03:45:14;101619.64;;;15.76;33.67
69239;BME280;56349;51.816;-0.026;2022-12-18T03:47:41;101613.23;;;15.73;33.69
69239;BME280;56349;51.816;-0.026;2022-12-18T03:50:09;101604.32;;;15.91;33.69
69239;BME280;56349;51.816;-0.026;2022-12-18T03:52:30;101601.48;;;15.65;33.72
69239;BME280;56349;51.816;-0.026;2022-12-18T03:54:55;101602.71;;;15.64;33.71
69239;BME280;56349;51.816;-0.026;2022-12-18T03:57:21;101600.14;;;15.60;33.74
69239;BME280;56349;51.816;-0.026;2022-12-18T03:59:46;101596.58;;;15.58;33.75
69239;BME280;56349;51.816;-0.026;2022-12-18T04:02:11;101591.07;;;15.54;33.76
69239;BME280;56349;51.816;-0.026;2022-12-18T04:04:38;101595.86;;;15.53;33.77
69239;BME280;56349;51.816;-0.026;2022-12-18T04:07:02;101591.53;;;15.73;33.77
69239;BME280;56349;51.816;-0.026;2022-12-18T04:09:28;101586.05;;;15.73;33.75
69239;BME280;56349;51.816;-0.026;2022-12-18T04:11:53;101579.36;;;15.98;33.75
69239;BME280;56349;51.816;-0.026;2022-12-18T04:14:20;101579.92;;;15.47;33.76
69239;BME280;56349;51.816;-0.026;2022-12-18T04:16:44;101581.62;;;15.44;33.78
69239;BME280;56349;51.816;-0.026;2022-12-18T04:19:10;101579.67;;;15.40;33.79
69239;BME280;56349;51.816;-0.026;2022-12-18T04:21:36;101574.14;;;15.59;33.82
69239;BME280;56349;51.816;-0.026;2022-12-18T04:24:03;101577.15;;;15.85;33.79
69239;BME280;56349;51.816;-0.026;2022-12-18T04:26:28;101575.13;;;15.57;33.79
69239;BME280;56349;51.816;-0.026;2022-12-18T04:28:54;101574.75;;;15.31;33.80
69239;BME280;56349;51.816;-0.026;2022-12-18T04:31:20;101572.10;;;15.51;33.86
69239;BME280;56349;51.816;-0.026;2022-12-18T04:33:45;101569.63;;;15.27;33.93
69239;BME280;56349;51.816;-0.026;2022-12-18T04:36:12;101562.67;;;15.29;33.98
69239;BME280;56349;51.816;-0.026;2022-12-18T04:38:38;101558.84;;;15.57;33.99
69239;BME280;56349;51.816;-0.026;2022-12-18T04:41:03;101560.93;;;15.43;34.00
69239;BME280;56349;51.816;-0.026;2022-12-18T04:43:29;101554.66;;;15.54;33.92
69239;BME280;56349;51.816;-0.026;2022-12-18T04:46:01;101548.52;;;15.41;33.78
69239;BME280;56349;51.816;-0.026;2022-12-18T04:48:21;101542.31;;;15.56;33.62
69239;BME280;56349;51.816;-0.026;2022-12-18T04:50:47;101533.42;;;15.94;33.44
69239;BME280;56349;51.816;-0.026;2022-12-18T04:53:13;101533.01;;;16.02;33.28
69239;BME280;56349;51.816;-0.026;2022-12-18T04:55:39;101538.69;;;16.08;33.15
69239;BME280;56349;51.816;-0.026;2022-12-18T04:58:04;101543.22;;;16.12;33.00
69239;BME280;56349;51.816;-0.026;2022-12-18T05:00:30;101536.45;;;15.85;32.91
69239;BME280;56349;51.816;-0.026;2022-12-18T05:02:56;101525.18;;;16.10;32.83
69239;BME280;56349;51.816;-0.026;2022-12-18T05:05:22;101512.17;;;16.07;32.79
69239;BME280;56349;51.816;-0.026;2022-12-18T05:07:47;101505.24;;;16.03;32.82
69239;BME280;56349;51.816;-0.026;2022-12-18T05:10:13;101497.50;;;16.00;32.89
69239;BME280;56349;51.816;-0.026;2022-12-18T05:12:39;101495.79;;;15.99;32.97
69239;BME280;56349;51.816;-0.026;2022-12-18T05:15:06;101496.31;;;15.94;33.10
69239;BME280;56349;51.816;-0.026;2022-12-18T05:17:31;101489.19;;;15.92;33.23
69239;BME280;56349;51.816;-0.026;2022-12-18T05:19:57;101488.65;;;15.91;33.37
69239;BME280;56349;51.816;-0.026;2022-12-18T05:22:23;101478.16;;;15.90;33.52
69239;BME280;56349;51.816;-0.026;2022-12-18T05:24:49;101461.68;;;15.89;33.65
69239;BME280;56349;51.816;-0.026;2022-12-18T05:27:15;101453.32;;;15.89;33.79
69239;BME280;56349;51.816;-0.026;2022-12-18T05:29:41;101448.57;;;15.88;33.96
69239;BME280;56349;51.816;-0.026;2022-12-18T05:32:07;101445.63;;;15.89;34.09
69239;BME280;56349;51.816;-0.026;2022-12-18T05:34:33;101444.68;;;15.91;34.20
69239;BME280;56349;51.816;-0.026;2022-12-18T05:36:59;101444.80;;;15.93;34.33
69239;BME280;56349;51.816;-0.026;2022-12-18T05:39:24;101443.32;;;15.95;34.43
69239;BME280;56349;51.816;-0.026;2022-12-18T05:41:50;101440.80;;;15.71;34.55
69239;BME280;56349;51.816;-0.026;2022-12-18T05:44:16;101433.92;;;15.76;34.63
69239;BME280;56349;51.816;-0.026;2022-12-18T05:46:42;101437.37;;;16.08;34.68
69239;BME280;56349;51.816;-0.026;2022-12-18T05:49:08;101427.13;;;16.11;34.73
69239;BME280;56349;51.816;-0.026;2022-12-18T05:51:34;101413.25;;;16.15;34.79
69239;BME280;56349;51.816;-0.026;2022-12-18T05:54:00;101409.21;;;16.19;34.85
69239;BME280;56349;51.816;-0.026;2022-12-18T05:56:25;101414.64;;;16.21;34.91
69239;BME280;56349;51.816;-0.026;2022-12-18T05:58:52;101437.17;;;15.99;34.96
69239;BME280;56349;51.816;-0.026;2022-12-18T06:01:18;101447.02;;;16.06;34.98
69239;BME280;56349;51.816;-0.026;2022-12-18T06:03:43;101435.88;;;16.42;34.94
69239;BME280;56349;51.816;-0.026;2022-12-18T06:06:13;101438.91;;;16.47;34.96
69239;BME280;56349;51.816;-0.026;2022-12-18T06:08:33;101427.49;;;16.51;34.99
69239;BME280;56349;51.816;-0.026;2022-12-18T06:10:58;101417.76;;;16.55;35.00
69239;BME280;56349;51.816;-0.026;2022-12-18T06:13:24;101406.77;;;16.30;35.04
69239;BME280;56349;51.816;-0.026;2022-12-18T06:15:50;101399.91;;;16.62;35.04
69239;BME280;56349;51.816;-0.026;2022-12-18T06:18:16;101399.65;;;16.41;35.04
69239;BME280;56349;51.816;-0.026;2022-12-18T06:20:42;101397.88;;;16.45;35.06
69239;BME280;56349;51.816;-0.026;2022-12-18T06:23:08;101400.24;;;16.51;35.06
69239;BME280;56349;51.816;-0.026;2022-12-18T06:25:32;101397.03;;;16.81;35.07
69239;BME280;56349;51.816;-0.026;2022-12-18T06:27:58;101392.83;;;16.64;35.01
69239;BME280;56349;51.816;-0.026;2022-12-18T06:30:25;101390.42;;;16.96;34.93
69239;BME280;56349;51.816;-0.026;2022-12-18T06:32:51;101385.09;;;17.00;34.85
69239;BME280;56349;51.816;-0.026;2022-12-18T06:35:16;101381.77;;;16.75;34.78
69239;BME280;56349;51.816;-0.026;2022-12-18T06:37:41;101379.99;;;16.79;34.69
69239;BME280;56349;51.816;-0.026;2022-12-18T06:40:07;101376.94;;;16.81;34.60
69239;BME280;56349;51.816;-0.026;2022-12-18T06:42:32;101370.74;;;16.82;34.50
69239;BME280;56349;51.816;-0.026;2022-12-18T06:44:58;101367.34;;;17.10;34.40
69239;BME280;56349;51.816;-0.026;2022-12-18T06:47:24;101362.96;;;16.61;34.31
69239;BME280;56349;51.816;-0.026;2022-12-18T06:49:50;101364.56;;;16.65;34.20
69239;BME280;56349;51.816;-0.026;2022-12-18T06:52:16;101362.00;;;16.67;34.08
69239;BME280;56349;51.816;-0.026;2022-12-18T06:54:42;101361.06;;;16.68;33.99
69239;BME280;56349;51.816;-0.026;2022-12-18T06:57:07;101366.14;;;16.89;33.91
69239;BME280;56349;51.816;-0.026;2022-12-18T06:59:33;101371.95;;;16.88;33.85
69239;BME280;56349;51.816;-0.026;2022-12-18T07:01:59;101379.38;;;16.64;33.75
69239;BME280;56349;51.816;-0.026;2022-12-18T07:04:28;101370.43;;;16.84;33.70
69239;BME280;56349;51.816;-0.026;2022-12-18T07:06:51;101362.12;;;16.60;33.64
69239;BME280;56349;51.816;-0.026;2022-12-18T07:09:17;101365.02;;;16.84;33.54
69239;BME280;56349;51.816;-0.026;2022-12-18T07:11:43;101356.63;;;17.09;33.46
69239;BME280;56349;51.816;-0.026;2022-12-18T07:14:09;101344.77;;;16.57;33.41
69239;BME280;56349;51.816;-0.026;2022-12-18T07:16:35;101340.95;;;17.03;33.37
69239;BME280;56349;51.816;-0.026;2022-12-18T07:19:01;101341.81;;;16.51;33.34
69239;BME280;56349;51.816;-0.026;2022-12-18T07:21:26;101343.38;;;16.72;33.28
69239;BME280;56349;51.816;-0.026;2022-12-18T07:23:52;101338.01;;;16.68;33.24
69239;BME280;56349;51.816;-0.026;2022-12-18T07:26:20;101337.48;;;16.66;33.20
69239;BME280;56349;51.816;-0.026;2022-12-18T07:28:44;101342.20;;;16.64;33.14
69239;BME280;56349;51.816;-0.026;2022-12-18T07:31:12;101342.15;;;16.61;33.09
69239;BME280;56349;51.816;-0.026;2022-12-18T07:33:36;101340.63;;;16.57;33.06
69239;BME280;56349;51.816;-0.026;2022-12-18T07:36:04;101335.92;;;16.33;33.02
69239;BME280;56349;51.816;-0.026;2022-12-18T07:38:28;101333.14;;;16.79;33.00
69239;BME280;56349;51.816;-0.026;2022-12-18T07:40:53;101324.44;;;16.74;32.98
69239;BME280;56349;51.816;-0.026;2022-12-18T07:43:19;101316.14;;;16.43;32.97
69239;BME280;56349;51.816;-0.026;2022-12-18T07:45:45;101311.28;;;16.39;32.95
69239;BME280;56349;51.816;-0.026;2022-12-18T07:48:11;101308.47;;;16.60;32.93
69239;BME280;56349;51.816;-0.026;2022-12-18T07:50:37;101307.30;;;16.55;32.93
69239;BME280;56349;51.816;-0.026;2022-12-18T07:53:02;101302.92;;;16.24;32.94
69239;BME280;56349;51.816;-0.026;2022-12-18T07:55:29;101305.11;;;16.20;32.93
69239;BME280;56349;51.816;-0.026;2022-12-18T07:57:53;101302.44;;;16.43;33.06
69239;BME280;56349;51.816;-0.026;2022-12-18T08:00:19;101299.70;;;16.17;33.22
69239;BME280;56349;51.816;-0.026;2022-12-18T08:02:46;101300.84;;;16.48;33.49
69239;BME280;56349;51.816;-0.026;2022-12-18T08:05:11;101301.96;;;16.23;33.79
69239;BME280;56349;51.816;-0.026;2022-12-18T08:07:36;101299.72;;;16.55;34.13
69239;BME280;56349;51.816;-0.026;2022-12-18T08:10:02;101298.52;;;16.67;34.46
69239;BME280;56349;51.816;-0.026;2022-12-18T08:12:28;101289.44;;;16.57;34.71
69239;BME280;56349;51.816;-0.026;2022-12-18T08:14:53;101278.65;;;16.79;34.85
69239;BME280;56349;51.816;-0.026;2022-12-18T08:17:19;101276.11;;;16.81;34.87
69239;BME280;56349;51.816;-0.026;2022-12-18T08:19:44;101282.47;;;17.10;34.85
69239;BME280;56349;51.816;-0.026;2022-12-18T08:22:10;101269.99;;;17.40;34.79
69239;BME280;56349;51.816;-0.026;2022-12-18T08:24:35;101269.32;;;17.22;34.67
69239;BME280;56349;51.816;-0.026;2022-12-18T08:27:01;101286.15;;;18.02;34.53
69239;BME280;56349;51.816;-0.026;2022-12-18T08:29:27;101295.19;;;17.84;34.37
69239;BME280;56349;51.816;-0.026;2022-12-18T08:31:52;101300.64;;;18.14;34.18
69239;BME280;56349;51.816;-0.026;2022-12-18T08:34:18;101300.29;;;18.42;33.98
69239;BME280;56349;51.816;-0.026;2022-12-18T08:36:44;101294.94;;;18.50;33.81
69239;BME280;56349;51.816;-0.026;2022-12-18T08:39:10;101307.01;;;18.81;33.57
69239;BME280;56349;51.816;-0.026;2022-12-18T08:41:36;101317.66;;;18.84;33.33
69239;BME280;56349;51.816;-0.026;2022-12-18T08:44:02;101317.19;;;19.09;33.12
69239;BME280;56349;51.816;-0.026;2022-12-18T08:46:34;101312.18;;;19.33;32.93
69239;BME280;56349;51.816;-0.026;2022-12-18T08:48:55;101302.04;;;19.57;32.73
69239;BME280;56349;51.816;-0.026;2022-12-18T08:51:21;101293.95;;;19.54;32.54
69239;BME280;56349;51.816;-0.026;2022-12-18T08:53:46;101297.08;;;19.76;32.36
69239;BME280;56349;51.816;-0.026;2022-12-18T08:56:11;101295.36;;;19.75;32.16
69239;BME280;56349;51.816;-0.026;2022-12-18T08:58:36;101294.61;;;19.96;31.96
69239;BME280;56349;51.816;-0.026;2022-12-18T09:01:03;101285.57;;;20.14;31.81
69239;BME280;56349;51.816;-0.026;2022-12-18T09:03:28;101281.15;;;20.04;31.54
69239;BME280;56349;51.816;-0.026;2022-12-18T09:05:53;101275.66;;;20.15;31.25
69239;BME280;56349;51.816;-0.026;2022-12-18T09:08:21;101277.01;;;20.21;30.93
69239;BME280;56349;51.816;-0.026;2022-12-18T09:10:45;101282.43;;;20.31;30.60
69239;BME280;56349;51.816;-0.026;2022-12-18T09:13:11;101277.62;;;20.37;30.44
69239;BME280;56349;51.816;-0.026;2022-12-18T09:15:40;101277.01;;;20.64;30.37
69239;BME280;56349;51.816;-0.026;2022-12-18T09:18:01;101279.72;;;20.60;30.33
69239;BME280;56349;51.816;-0.026;2022-12-18T09:20:27;101284.59;;;20.27;30.29
69239;BME280;56349;51.816;-0.026;2022-12-18T09:22:53;101281.27;;;20.15;30.34
69239;BME280;56349;51.816;-0.026;2022-12-18T09:25:19;101286.48;;;20.04;30.35
69239;BME280;56349;51.816;-0.026;2022-12-18T09:27:47;101291.98;;;20.15;30.45
69239;BME280;56349;51.816;-0.026;2022-12-18T09:30:10;101299.83;;;20.03;30.51
69239;BME280;56349;51.816;-0.026;2022-12-18T09:32:35;101304.03;;;20.11;30.60
69239;BME280;56349;51.816;-0.026;2022-12-18T09:35:01;101306.88;;;19.76;30.69
69239;BME280;56349;51.816;-0.026;2022-12-18T09:37:26;101307.53;;;19.85;30.81
69239;BME280;56349;51.816;-0.026;2022-12-18T09:39:52;101307.34;;;19.95;30.91
69239;BME280;56349;51.816;-0.026;2022-12-18T09:42:21;101301.29;;;19.82;31.00
69239;BME280;56349;51.816;-0.026;2022-12-18T09:44:46;101293.45;;;19.46;31.11
69239;BME280;56349;51.816;-0.026;2022-12-18T09:47:12;101301.63;;;19.57;31.22
69239;BME280;56349;51.816;-0.026;2022-12-18T09:49:37;101305.76;;;19.20;31.23
69239;BME280;56349;51.816;-0.026;2022-12-18T09:52:03;101289.79;;;19.56;31.22
69239;BME280;56349;51.816;-0.026;2022-12-18T09:54:31;101284.87;;;19.19;31.23
69239;BME280;56349;51.816;-0.026;2022-12-18T09:56:50;101285.24;;;19.05;31.25
69239;BME280;56349;51.816;-0.026;2022-12-18T09:59:22;101287.55;;;19.16;31.10
69239;BME280;56349;51.816;-0.026;2022-12-18T10:01:41;101291.93;;;19.02;31.25
69239;BME280;56349;51.816;-0.026;2022-12-18T10:04:09;101294.18;;;18.38;31.37
69239;BME280;56349;51.816;-0.026;2022-12-18T10:06:37;101295.27;;;18.99;31.59
69239;BME280;56349;51.816;-0.026;2022-12-18T10:09:01;101299.35;;;18.91;31.70
69239;BME280;56349;51.816;-0.026;2022-12-18T10:11:34;101299.46;;;18.83;31.56
69239;BME280;56349;51.816;-0.026;2022-12-18T10:13:54;101301.11;;;18.72;31.69
69239;BME280;56349;51.816;-0.026;2022-12-18T10:16:19;101306.23;;;18.70;31.84
69239;BME280;56349;51.816;-0.026;2022-12-18T10:18:55;101305.57;;;18.65;31.99
69239;BME280;56349;51.816;-0.026;2022-12-18T10:21:11;101292.73;;;18.57;32.13
69239;BME280;56349;51.816;-0.026;2022-12-18T10:23:36;101280.93;;;18.50;32.22
69239;BME280;56349;51.816;-0.026;2022-12-18T10:26:02;101274.13;;;18.69;32.35
69239;BME280;56349;51.816;-0.026;2022-12-18T10:28:23;101276.89;;;18.36;32.49
69239;BME280;56349;51.816;-0.026;2022-12-18T10:30:47;101272.98;;;18.29;32.65
69239;BME280;56349;51.816;-0.026;2022-12-18T10:33:18;101271.10;;;18.24;32.79
69239;BME280;56349;51.816;-0.026;2022-12-18T10:35:41;101272.37;;;18.21;32.90
69239;BME280;56349;51.816;-0.026;2022-12-18T10:38:07;101265.13;;;18.45;32.98
69239;BME280;56349;51.816;-0.026;2022-12-18T10:40:30;101267.17;;;18.13;33.13
69239;BME280;56349;51.816;-0.026;2022-12-18T10:43:03;101255.42;;;18.11;33.25
69239;BME280;56349;51.816;-0.026;2022-12-18T10:45:21;101247.46;;;18.10;33.32
69239;BME280;56349;51.816;-0.026;2022-12-18T10:47:48;101239.52;;;18.07;33.40
69239;BME280;56349;51.816;-0.026;2022-12-18T10:50:18;101223.30;;;18.03;33.51
69239;BME280;56349;51.816;-0.026;2022-12-18T10:52:38;101215.22;;;18.00;33.61
69239;BME280;56349;51.816;-0.026;2022-12-18T10:55:04;101209.89;;;17.98;33.68
69239;BME280;56349;51.816;-0.026;2022-12-18T10:57:34;101197.16;;;18.22;33.77
69239;BME280;56349;51.816;-0.026;2022-12-18T10:59:57;101194.72;;;17.96;33.83
69239;BME280;56349;51.816;-0.026;2022-12-18T11:02:26;101205.60;;;17.94;33.90
69239;BME280;56349;51.816;-0.026;2022-12-18T11:04:51;101207.03;;;17.94;33.94
69239;BME280;56349;51.816;-0.026;2022-12-18T11:07:12;101193.48;;;17.96;34.01
69239;BME280;56349;51.816;-0.026;2022-12-18T11:09:39;101192.95;;;18.25;33.99
69239;BME280;56349;51.816;-0.026;2022-12-18T11:12:08;101181.52;;;17.98;33.98
69239;BME280;56349;51.816;-0.026;2022-12-18T11:14:30;101174.75;;;17.99;33.97
69239;BME280;56349;51.816;-0.026;2022-12-18T11:16:56;101168.61;;;17.98;33.98
69239;BME280;56349;51.816;-0.026;2022-12-18T11:19:26;101158.48;;;17.98;34.03
69239;BME280;56349;51.816;-0.026;2022-12-18T11:21:45;101149.71;;;18.25;34.07
69239;BME280;56349;51.816;-0.026;2022-12-18T11:24:20;101139.44;;;17.96;34.11
69239;BME280;56349;51.816;-0.026;2022-12-18T11:26:36;101138.24;;;17.94;34.14
69239;BME280;56349;51.816;-0.026;2022-12-18T11:29:08;101125.30;;;17.95;34.11
69239;BME280;56349;51.816;-0.026;2022-12-18T11:31:29;101115.59;;;18.42;34.18
69239;BME280;56349;51.816;-0.026;2022-12-18T11:33:59;101106.99;;;18.19;34.20
69239;BME280;56349;51.816;-0.026;2022-12-18T11:36:19;101093.61;;;17.93;34.25
69239;BME280;56349;51.816;-0.026;2022-12-18T11:38:44;101091.62;;;18.20;34.26
69239;BME280;56349;51.816;-0.026;2022-12-18T11:41:18;101084.50;;;18.20;34.29
69239;BME280;56349;51.816;-0.026;2022-12-18T11:43:38;101080.44;;;17.94;34.32
69239;BME280;56349;51.816;-0.026;2022-12-18T11:46:05;101079.19;;;17.96;34.32
69239;BME280;56349;51.816;-0.026;2022-12-18T11:48:29;101079.24;;;18.01;34.31
69239;BME280;56349;51.816;-0.026;2022-12-18T11:50:53;101075.17;;;18.05;34.24
69239;BME280;56349;51.816;-0.026;2022-12-18T11:53:18;101065.92;;;18.10;34.05
69239;BME280;56349;51.816;-0.026;2022-12-18T11:55:50;101054.70;;;18.18;34.07
69239;BME280;56349;51.816;-0.026;2022-12-18T11:58:15;101063.59;;;18.26;34.14
69239;BME280;56349;51.816;-0.026;2022-12-18T12:00:37;101061.12;;;18.31;34.19
69239;BME280;56349;51.816;-0.026;2022-12-18T12:05:44;101057.73;;;18.34;34.35
69239;BME280;56349;51.816;-0.026;2022-12-18T12:07:55;101058.24;;;18.34;34.42
69239;BME280;56349;51.816;-0.026;2022-12-18T12:10:28;101058.92;;;18.38;34.44
69239;BME280;56349;51.816;-0.026;2022-12-18T12:12:53;101055.58;;;18.41;34.45
69239;BME280;56349;51.816;-0.026;2022-12-18T12:15:16;101052.68;;;18.45;34.45
69239;BME280;56349;51.816;-0.026;2022-12-18T12:17:36;101059.35;;;18.49;34.45
69239;BME280;56349;51.816;-0.026;2022-12-18T12:20:04;101052.27;;;18.54;34.43
69239;BME280;56349;51.816;-0.026;2022-12-18T12:22:30;101040.47;;;18.38;34.42
69239;BME280;56349;51.816;-0.026;2022-12-18T12:24:59;101021.89;;;18.69;34.35
69239;BME280;56349;51.816;-0.026;2022-12-18T12:27:20;101026.96;;;18.31;34.25
69239;BME280;56349;51.816;-0.026;2022-12-18T12:29:49;101020.89;;;18.66;34.17
69239;BME280;56349;51.816;-0.026;2022-12-18T12:32:17;101021.88;;;18.96;34.12
69239;BME280;56349;51.816;-0.026;2022-12-18T12:34:38;101013.81;;;18.82;34.04